Time;durP1;ratioP1;P1;durP2;ratioP2;P2;SDS_P1;SDS_P2;PMS_P1;PMS_P2;Temp;Humidity;BMP_temperature;BMP_pressure;BME280_temperature;BME280_humidity;BME280_pressure;Samples;Min_cycle;Max_cycle;Signal;HPM_P1;HPM_P2
2023/09/20 00:00:11;;;;;;;1.90;1.80;;;22.30;59.50;23.10;100300.00;;;;5012422;28;20231;-51
2023/09/20 00:02:42;;;;;;;2.10;1.90;;;22.30;59.50;23.10;100303.00;;;;5010053;28;20227;-51
2023/09/20 00:05:15;;;;;;;1.90;1.70;;;22.30;59.50;23.10;100302.00;;;;5011128;28;20186;-52
2023/09/20 00:07:42;;;;;;;2.10;1.87;;;22.30;59.50;23.10;100300.00;;;;5010697;28;20218;-51
2023/09/20 00:10:14;;;;;;;2.97;1.90;;;22.20;60.10;23.00;100304.00;;;;5010649;28;20204;-51
2023/09/20 00:12:40;;;;;;;1.87;1.77;;;22.30;59.60;22.80;100304.00;;;;5010735;28;20853;-51
2023/09/20 00:15:10;;;;;;;1.80;1.60;;;22.30;59.60;23.00;100305.00;;;;5009501;28;20203;-51
2023/09/20 00:17:36;;;;;;;1.87;1.70;;;22.20;59.60;23.00;100244.00;;;;5010677;28;20269;-51
2023/09/20 00:20:11;;;;;;;2.17;1.97;;;22.20;59.60;22.80;100300.00;;;;5009381;28;20219;-51
2023/09/20 00:22:43;;;;;;;1.97;1.80;;;22.20;59.60;23.00;100300.00;;;;5011043;28;20231;-51
2023/09/20 00:25:10;;;;;;;1.90;1.73;;;22.20;59.60;23.00;100307.00;;;;5010990;28;20187;-51
2023/09/20 00:27:38;;;;;;;2.17;1.90;;;22.20;59.60;23.00;100294.00;;;;5010436;28;20559;-51
2023/09/20 00:30:14;;;;;;;1.87;1.67;;;22.20;59.70;23.00;100308.00;;;;5010835;28;20764;-51
2023/09/20 00:32:40;;;;;;;1.93;1.83;;;22.20;59.60;23.00;100292.00;;;;5009127;28;20603;-51
2023/09/20 00:35:11;;;;;;;1.90;1.80;;;22.20;59.70;23.00;100298.00;;;;5010669;28;20196;-51
2023/09/20 00:37:39;;;;;;;2.00;1.77;;;22.20;59.70;23.00;100302.00;;;;5010390;28;20179;-49
2023/09/20 00:40:15;;;;;;;2.10;1.87;;;22.20;59.70;23.00;100296.00;;;;5010122;28;20788;-50
2023/09/20 00:42:45;;;;;;;1.93;1.70;;;22.20;59.80;23.00;100289.00;;;;5010696;28;20270;-52
2023/09/20 00:45:13;;;;;;;1.70;1.60;;;22.20;59.80;23.00;100288.00;;;;5010365;28;20179;-51
2023/09/20 00:47:43;;;;;;;2.33;1.70;;;22.20;59.80;23.00;100288.00;;;;5009747;28;20226;-51
2023/09/20 00:50:12;;;;;;;2.20;1.80;;;22.20;59.80;23.00;100304.00;;;;5008810;28;20235;-51
2023/09/20 00:52:52;;;;;;;1.70;1.60;;;22.20;59.80;23.00;100289.00;;;;5009875;28;20244;-52
2023/09/20 00:55:23;;;;;;;1.73;1.63;;;22.20;59.90;23.00;100284.00;;;;5008883;28;20271;-51
2023/09/20 00:57:51;;;;;;;2.07;1.80;;;22.20;59.90;23.00;100286.00;;;;5009871;28;20203;-50
2023/09/20 01:00:21;;;;;;;2.57;1.67;;;22.20;59.90;22.90;100297.00;;;;5008778;28;20246;-50
2023/09/20 01:02:49;;;;;;;2.13;1.80;;;22.20;59.90;22.90;100289.00;;;;5010026;28;20258;-51
2023/09/20 01:05:15;;;;;;;2.10;1.83;;;22.20;60.00;22.90;100297.00;;;;5010122;28;20183;-51
2023/09/20 01:07:42;;;;;;;1.97;1.77;;;22.20;60.00;22.90;100298.00;;;;4992315;28;20250;-50
2023/09/20 01:10:09;;;;;;;2.20;1.70;;;22.20;60.00;22.90;100285.00;;;;5008736;28;20200;-50
2023/09/20 01:12:37;;;;;;;2.03;1.80;;;22.20;60.10;22.90;100285.00;;;;5010067;28;20222;-50
2023/09/20 01:15:03;;;;;;;2.07;1.80;;;22.10;60.00;22.90;100283.00;;;;5009744;28;20207;-51
2023/09/20 01:17:29;;;;;;;2.77;1.80;;;22.10;60.10;22.90;100280.00;;;;5009625;28;20265;-51
2023/09/20 01:19:55;;;;;;;1.93;1.70;;;22.10;60.00;22.90;100281.00;;;;4991930;28;20820;-51
2023/09/20 01:22:20;;;;;;;2.23;1.90;;;22.10;60.00;22.90;100283.00;;;;5009913;28;20670;-52
2023/09/20 01:24:46;;;;;;;2.47;2.27;;;22.10;60.20;22.90;100283.00;;;;5008428;28;20179;-51
2023/09/20 01:27:13;;;;;;;2.73;2.17;;;22.10;60.30;22.80;100281.00;;;;4991686;28;20310;-52
2023/09/20 01:29:39;;;;;;;2.40;2.20;;;22.00;60.40;22.80;100277.00;;;;5009398;28;20199;-50
2023/09/20 01:32:05;;;;;;;2.90;2.10;;;22.00;60.60;22.70;100277.00;;;;5009260;28;20203;-51
2023/09/20 01:34:31;;;;;;;2.87;2.10;;;21.90;60.50;22.70;100270.00;;;;5008270;28;20254;-51
2023/09/20 01:36:58;;;;;;;2.70;2.20;;;21.90;60.50;22.70;100272.00;;;;5009487;28;20246;-52
2023/09/20 01:39:24;;;;;;;3.00;2.40;;;21.90;60.50;22.60;100279.00;;;;5009433;28;20654;-52
2023/09/20 01:41:50;;;;;;;3.80;2.27;;;21.90;60.50;22.60;100280.00;;;;5008739;28;20203;-52
2023/09/20 01:44:16;;;;;;;2.70;2.13;;;21.90;60.70;22.60;100269.00;;;;5017098;28;20182;-51
2023/09/20 01:46:42;;;;;;;2.77;2.37;;;21.80;60.60;22.60;100261.00;;;;4992632;28;20179;-51
2023/09/20 01:49:08;;;;;;;3.20;2.13;;;21.80;60.70;22.60;100261.00;;;;5009252;28;20607;-51
2023/09/20 01:51:34;;;;;;;2.50;2.13;;;21.80;60.80;22.50;100259.00;;;;4977537;28;20793;-51
2023/09/20 01:53:59;;;;;;;3.33;2.43;;;21.80;60.90;22.50;100256.00;;;;5010726;28;20246;-51
2023/09/20 01:56:26;;;;;;;2.47;2.23;;;21.80;61.20;22.50;100252.00;;;;5024683;28;20218;-50
2023/09/20 01:58:51;;;;;;;3.63;2.30;;;21.80;61.10;22.50;100252.00;;;;5015421;28;20273;-51
2023/09/20 02:01:17;;;;;;;3.90;2.60;;;21.80;61.00;22.50;100247.00;;;;5006953;28;20806;-51
2023/09/20 02:03:43;;;;;;;3.17;2.27;;;21.80;61.10;22.50;100258.00;;;;5007799;28;20179;-51
2023/09/20 02:06:09;;;;;;;3.13;2.30;;;21.80;61.10;22.50;100254.00;;;;5008548;28;20717;-51
2023/09/20 02:08:35;;;;;;;3.00;2.20;;;21.70;61.00;22.50;100189.00;;;;5007466;28;20176;-51
2023/09/20 02:11:03;;;;;;;3.33;2.40;;;21.70;61.10;22.50;100264.00;;;;5007565;28;20235;-52
2023/09/20 02:13:28;;;;;;;2.97;2.30;;;21.70;61.10;22.40;100254.00;;;;5007647;28;20167;-53
2023/09/20 02:15:55;;;;;;;3.13;2.40;;;21.70;61.20;22.40;100253.00;;;;5008905;28;20175;-51
2023/09/20 02:18:22;;;;;;;3.30;2.30;;;21.70;61.30;22.40;100245.00;;;;5008685;28;20247;-51
2023/09/20 02:20:48;;;;;;;2.53;2.20;;;21.70;61.40;22.40;100247.00;;;;4991583;28;20214;-52
2023/09/20 02:23:15;;;;;;;2.70;2.10;;;21.70;61.50;22.40;100249.00;;;;5008716;28;20180;-51
2023/09/20 02:25:41;;;;;;;3.00;2.30;;;21.60;61.40;22.40;100249.00;;;;5008492;28;20176;-51
2023/09/20 02:28:07;;;;;;;2.40;2.20;;;21.60;61.40;22.30;100251.00;;;;5008023;28;20296;-51
2023/09/20 02:30:35;;;;;;;3.17;2.30;;;21.60;61.40;22.30;100244.00;;;;5008558;28;20191;-51
2023/09/20 02:33:05;;;;;;;2.80;2.37;;;21.60;61.60;22.30;100244.00;;;;5006974;28;20277;-50
2023/09/20 02:35:31;;;;;;;3.83;2.30;;;21.60;61.70;22.30;100245.00;;;;4991318;28;20657;-52
2023/09/20 02:37:58;;;;;;;3.27;2.20;;;21.60;61.70;22.30;100241.00;;;;5008142;28;20168;-51
2023/09/20 02:40:24;;;;;;;3.23;2.50;;;21.60;61.70;22.30;100241.00;;;;5007452;28;20203;-52
2023/09/20 02:42:55;;;;;;;2.70;2.50;;;21.50;61.70;22.30;100239.00;;;;5008441;28;20767;-52
2023/09/20 02:45:22;;;;;;;2.80;2.30;;;21.60;61.80;22.30;100246.00;;;;5008470;28;20182;-50
2023/09/20 02:47:48;;;;;;;4.07;2.67;;;21.60;61.90;22.30;100236.00;;;;5008261;28;20184;-51
2023/09/20 02:50:18;;;;;;;2.60;2.17;;;21.50;61.80;22.30;100234.00;;;;5008418;28;20207;-52
2023/09/20 02:52:45;;;;;;;2.53;2.20;;;21.50;61.90;22.20;100242.00;;;;5008245;28;20274;-51
2023/09/20 02:55:13;;;;;;;4.73;2.30;;;21.50;61.90;22.20;100207.00;;;;5001764;28;20184;-51
2023/09/20 02:57:40;;;;;;;2.67;2.10;;;21.50;61.90;22.20;100225.00;;;;5010879;28;20727;-51
2023/09/20 03:00:15;;;;;;;3.60;2.20;;;21.40;61.90;22.20;100238.00;;;;5013385;28;20226;-51
2023/09/20 03:02:51;;;;;;;2.73;2.10;;;21.40;62.00;22.20;100228.00;;;;5015425;28;20175;-51
2023/09/20 03:05:24;;;;;;;2.60;2.40;;;21.40;62.00;22.20;100229.00;;;;4997945;28;20645;-51
2023/09/20 03:07:50;;;;;;;3.47;2.40;;;21.40;62.10;22.20;100236.00;;;;5012092;28;20188;-50
2023/09/20 03:10:19;;;;;;;3.40;2.40;;;21.40;62.20;22.10;100214.00;;;;5013328;28;20287;-51
2023/09/20 03:12:46;;;;;;;3.53;2.43;;;21.40;62.20;22.10;100221.00;;;;5012326;28;20203;-51
2023/09/20 03:15:17;;;;;;;2.50;2.20;;;21.40;62.30;22.10;100224.00;;;;5012145;28;20174;-51
2023/09/20 03:17:47;;;;;;;3.57;2.30;;;21.40;62.40;22.10;100220.00;;;;5012754;28;20184;-50
2023/09/20 03:20:15;;;;;;;4.83;2.40;;;21.40;62.40;22.10;100196.00;;;;5013434;28;20213;-51
2023/09/20 03:22:41;;;;;;;2.83;2.27;;;21.40;63.10;22.10;100206.00;;;;5013044;28;20233;-48
2023/09/20 03:25:11;;;;;;;3.03;2.40;;;21.40;62.50;22.00;100215.00;;;;5012953;28;20698;-48
2023/09/20 03:27:40;;;;;;;2.80;2.00;;;21.30;62.60;22.00;100210.00;;;;5011617;28;20556;-48
2023/09/20 03:30:08;;;;;;;3.80;2.40;;;21.30;62.70;22.00;100200.00;;;;5012981;28;20207;-49
2023/09/20 03:32:33;;;;;;;3.67;2.40;;;21.30;64.30;22.00;100207.00;;;;5012552;28;20298;-49
2023/09/20 03:34:59;;;;;;;2.87;2.30;;;21.30;63.10;22.00;100207.00;;;;5011489;28;20613;-49
2023/09/20 03:37:27;;;;;;;2.87;2.17;;;21.30;62.90;22.00;100197.00;;;;5012690;28;20549;-48
2023/09/20 03:39:52;;;;;;;4.00;2.63;;;21.30;63.00;22.00;100210.00;;;;5012574;28;20215;-48
2023/09/20 03:42:18;;;;;;;3.00;2.20;;;21.30;63.10;22.00;100210.00;;;;5031313;28;20179;-49
2023/09/20 03:44:45;;;;;;;3.77;2.47;;;21.30;63.10;22.00;100212.00;;;;5016360;28;20191;-47
2023/09/20 03:47:11;;;;;;;4.63;2.40;;;21.30;63.00;21.90;100202.00;;;;5010306;28;20572;-48
2023/09/20 03:49:37;;;;;;;2.53;2.23;;;21.20;63.00;21.90;100212.00;;;;5013231;28;20215;-48
2023/09/20 03:52:03;;;;;;;4.27;2.83;;;21.30;63.10;21.90;100198.00;;;;4979453;28;20211;-48
2023/09/20 03:54:29;;;;;;;2.80;2.13;;;21.20;63.10;21.90;100197.00;;;;5013580;28;20180;-48
2023/09/20 03:56:55;;;;;;;4.17;2.27;;;21.20;63.00;21.90;100194.00;;;;5030453;28;20256;-48
2023/09/20 03:59:21;;;;;;;3.30;2.40;;;21.20;63.10;21.90;100185.00;;;;5016304;28;20179;-48
2023/09/20 04:01:46;;;;;;;3.57;2.40;;;21.20;63.10;21.90;100182.00;;;;4994402;28;20769;-48
2023/09/20 04:04:16;;;;;;;2.57;2.37;;;21.20;63.30;21.90;100193.00;;;;5012541;28;20634;-52
2023/09/20 04:06:43;;;;;;;3.07;2.43;;;21.20;63.40;21.90;100183.00;;;;5010859;28;20183;-53
2023/09/20 04:09:11;;;;;;;3.00;2.50;;;21.10;63.30;21.80;100176.00;;;;5010576;28;20275;-52
2023/09/20 04:11:40;;;;;;;3.30;2.30;;;21.10;63.30;21.80;100174.00;;;;5009984;28;20204;-53
2023/09/20 04:14:09;;;;;;;2.90;2.23;;;21.10;63.30;21.80;100173.00;;;;5011528;28;20187;-53
2023/09/20 04:16:39;;;;;;;3.90;2.30;;;21.10;63.60;21.80;100165.00;;;;5011077;28;20254;-52
2023/09/20 04:19:06;;;;;;;3.50;2.40;;;21.10;63.80;21.70;100169.00;;;;5011095;28;20200;-52
2023/09/20 04:21:32;;;;;;;3.63;2.30;;;21.10;63.70;21.70;100167.00;;;;5010175;28;20204;-52
2023/09/20 04:23:59;;;;;;;2.80;2.30;;;21.10;63.70;21.70;100161.00;;;;5011346;28;20195;-52
2023/09/20 04:26:25;;;;;;;3.57;2.30;;;21.10;63.70;21.70;100164.00;;;;5010799;28;20180;-52
2023/09/20 04:28:51;;;;;;;5.93;2.60;;;21.10;63.80;21.70;100158.00;;;;5011367;28;20686;-52
2023/09/20 04:31:17;;;;;;;3.93;2.30;;;21.10;63.80;21.70;100155.00;;;;5011029;28;20215;-52
2023/09/20 04:33:42;;;;;;;3.27;2.50;;;21.10;64.10;21.70;100154.00;;;;5011474;28;20176;-53
2023/09/20 04:36:08;;;;;;;4.03;2.30;;;21.00;64.00;21.70;100152.00;;;;5010954;28;20176;-53
2023/09/20 04:38:34;;;;;;;3.43;2.40;;;21.00;64.00;21.70;100156.00;;;;5011110;28;20191;-53
2023/09/20 04:40:59;;;;;;;3.67;2.50;;;21.00;64.10;21.70;100150.00;;;;5011136;28;20258;-52
2023/09/20 04:43:30;;;;;;;3.23;2.23;;;21.00;64.30;21.60;100140.00;;;;5009218;28;20203;-53
2023/09/20 04:45:57;;;;;;;3.80;3.40;;;21.00;64.20;21.60;100143.00;;;;5002717;28;20795;-53
2023/09/20 04:48:23;;;;;;;4.50;2.73;;;21.00;64.20;21.60;100133.00;;;;5003501;28;20184;-52
2023/09/20 04:50:49;;;;;;;4.60;2.70;;;20.90;64.10;21.60;100147.00;;;;5010540;28;20692;-52
2023/09/20 04:53:16;;;;;;;4.87;2.70;;;20.90;64.10;21.60;100153.00;;;;5008162;28;20764;-52
2023/09/20 04:55:42;;;;;;;2.60;2.40;;;20.90;63.80;21.60;100155.00;;;;5006992;28;20203;-51
2023/09/20 04:58:08;;;;;;;4.60;2.20;;;21.00;63.70;21.70;100165.00;;;;5010356;28;20183;-53
2023/09/20 05:00:37;;;;;;;3.63;2.43;;;21.00;63.60;21.70;100164.00;;;;5010495;28;20206;-52
2023/09/20 05:03:03;;;;;;;2.77;2.30;;;21.00;63.50;21.70;100169.00;;;;5010360;28;20190;-52
2023/09/20 05:05:29;;;;;;;3.17;2.60;;;21.00;63.20;21.70;100148.00;;;;5010578;28;20665;-52
2023/09/20 05:07:56;;;;;;;3.37;2.17;;;21.00;63.30;21.70;100156.00;;;;5009798;28;20286;-51
2023/09/20 05:10:22;;;;;;;3.03;2.40;;;21.00;63.20;21.70;100151.00;;;;5010203;28;20211;-51
2023/09/20 05:12:48;;;;;;;2.77;2.40;;;21.00;63.20;21.70;100159.00;;;;5010423;28;20212;-52
2023/09/20 05:15:15;;;;;;;3.70;2.30;;;21.00;63.20;21.70;100153.00;;;;5010431;28;20215;-51
2023/09/20 05:17:43;;;;;;;3.03;2.27;;;21.10;63.30;21.70;100152.00;;;;5009673;28;20184;-51
2023/09/20 05:20:13;;;;;;;2.47;2.10;;;21.00;63.20;21.70;100150.00;;;;5008117;28;20334;-51
2023/09/20 05:22:39;;;;;;;2.87;2.23;;;21.00;63.20;21.70;100152.00;;;;5010299;28;20310;-50
2023/09/20 05:25:07;;;;;;;3.00;2.20;;;21.00;63.10;21.70;100156.00;;;;5008837;28;20601;-52
2023/09/20 05:27:33;;;;;;;2.43;2.10;;;21.00;63.00;21.70;100147.00;;;;5009584;28;20207;-51
2023/09/20 05:29:59;;;;;;;2.33;2.13;;;21.00;63.00;21.70;100157.00;;;;5009704;28;20756;-51
2023/09/20 05:32:25;;;;;;;2.13;2.03;;;21.00;62.90;21.70;100149.00;;;;5009623;28;20207;-52
2023/09/20 05:34:51;;;;;;;2.57;2.00;;;21.00;62.90;21.70;100152.00;;;;5009964;28;20179;-51
2023/09/20 05:37:16;;;;;;;2.40;2.20;;;21.00;62.90;21.70;100153.00;;;;5009380;28;20198;-51
2023/09/20 05:39:48;;;;;;;2.77;2.20;;;21.00;62.90;21.70;100145.00;;;;5009971;28;20195;-52
2023/09/20 05:42:15;;;;;;;2.10;1.90;;;21.00;62.90;21.70;100143.00;;;;5017114;28;20194;-53
2023/09/20 05:44:40;;;;;;;3.00;1.90;;;21.00;62.90;21.70;100139.00;;;;5027643;28;20207;-52
2023/09/20 05:47:08;;;;;;;3.00;2.30;;;21.00;62.80;21.70;100129.00;;;;5009798;28;20202;-52
2023/09/20 05:49:34;;;;;;;2.47;2.03;;;21.00;62.80;21.50;100131.00;;;;5010215;28;20211;-52
2023/09/20 05:52:00;;;;;;;2.40;2.20;;;21.00;62.80;21.70;100136.00;;;;5009764;28;20207;-52
2023/09/20 05:54:26;;;;;;;2.67;2.17;;;21.00;62.70;21.70;100126.00;;;;5009923;28;20301;-52
2023/09/20 05:56:52;;;;;;;2.57;2.27;;;21.00;62.70;21.70;100128.00;;;;5016041;28;20183;-52
2023/09/20 05:59:18;;;;;;;2.40;2.20;;;21.10;62.70;21.70;100128.00;;;;5024298;28;20574;-51
2023/09/20 06:01:43;;;;;;;2.03;1.90;;;21.10;62.80;21.70;100132.00;;;;5008651;28;20184;-52
2023/09/20 06:04:09;;;;;;;2.27;1.90;;;21.00;62.50;21.70;100125.00;;;;5009314;28;20183;-52
2023/09/20 06:06:38;;;;;;;3.13;2.20;;;21.10;62.60;21.70;100144.00;;;;5009378;28;20180;-52
2023/09/20 06:09:04;;;;;;;2.30;2.10;;;21.10;62.60;21.70;100138.00;;;;5009205;28;20267;-51
2023/09/20 06:11:29;;;;;;;2.00;1.80;;;21.00;62.50;21.70;100128.00;;;;5008126;28;20693;-51
2023/09/20 06:13:55;;;;;;;2.20;2.00;;;21.10;62.70;21.70;100095.00;;;;5008054;28;20179;-52
2023/09/20 06:16:22;;;;;;;2.50;2.30;;;21.10;63.20;21.70;100121.00;;;;5007760;28;20614;-52
2023/09/20 06:18:49;;;;;;;2.20;2.00;;;21.10;62.50;21.70;100129.00;;;;4991860;28;20209;-52
2023/09/20 06:21:17;;;;;;;2.10;1.90;;;21.10;62.50;21.70;100123.00;;;;5009192;28;20188;-51
2023/09/20 06:23:46;;;;;;;2.33;2.10;;;21.10;62.50;21.70;100125.00;;;;5009821;28;20253;-51
2023/09/20 06:26:12;;;;;;;2.27;2.03;;;21.10;62.40;21.70;100139.00;;;;5008913;28;20198;-52
2023/09/20 06:28:44;;;;;;;1.83;1.73;;;21.00;62.30;21.70;100139.00;;;;5009016;28;20184;-52
2023/09/20 06:31:16;;;;;;;2.10;1.90;;;21.00;62.30;21.70;100141.00;;;;5008381;28;20208;-52
2023/09/20 06:33:46;;;;;;;1.97;1.83;;;21.10;62.40;21.70;100118.00;;;;5008253;28;20179;-51
2023/09/20 06:36:17;;;;;;;2.00;1.80;;;21.00;62.30;21.70;100138.00;;;;5008794;28;20194;-51
2023/09/20 06:38:43;;;;;;;2.00;1.90;;;21.10;62.40;21.70;100134.00;;;;5008740;28;20186;-51
2023/09/20 06:41:09;;;;;;;1.90;1.80;;;21.10;62.40;21.70;100134.00;;;;5007847;28;20295;-51
2023/09/20 06:43:36;;;;;;;2.00;1.90;;;21.00;62.40;21.70;100137.00;;;;5009281;28;20187;-51
2023/09/20 06:46:03;;;;;;;2.30;2.10;;;21.00;62.40;21.70;100142.00;;;;5007874;28;20183;-51
2023/09/20 06:48:29;;;;;;;2.00;1.90;;;21.10;62.50;21.70;100144.00;;;;5007810;28;20198;-51
2023/09/20 06:50:55;;;;;;;2.10;1.80;;;21.00;62.40;21.70;100128.00;;;;5009189;28;20246;-51
2023/09/20 06:53:23;;;;;;;1.93;1.70;;;21.00;62.40;21.70;100129.00;;;;5010853;28;20634;-51
2023/09/20 06:55:49;;;;;;;2.07;1.70;;;21.10;62.60;21.70;100108.00;;;;5011428;28;20245;-52
2023/09/20 06:58:15;;;;;;;1.90;1.80;;;21.00;62.30;21.70;100128.00;;;;5009939;28;20180;-52
2023/09/20 07:00:41;;;;;;;2.13;1.93;;;21.00;62.40;21.70;100140.00;;;;5008954;28;20264;-52
2023/09/20 07:03:07;;;;;;;1.90;1.80;;;21.00;62.50;21.70;100143.00;;;;5009356;28;20191;-50
2023/09/20 07:05:33;;;;;;;2.37;2.00;;;21.10;62.50;21.70;100135.00;;;;5009189;28;20171;-52
2023/09/20 07:07:59;;;;;;;2.00;1.90;;;21.00;62.50;21.70;100147.00;;;;5008382;28;20541;-52
2023/09/20 07:10:26;;;;;;;2.10;1.90;;;21.00;62.50;21.70;100147.00;;;;5008920;28;20191;-52
2023/09/20 07:12:54;;;;;;;2.20;1.90;;;21.00;62.50;21.70;100149.00;;;;5008658;28;20207;-52
2023/09/20 07:15:20;;;;;;;2.27;1.90;;;21.10;62.80;21.70;100147.00;;;;5008738;28;20187;-52
2023/09/20 07:17:58;;;;;;;2.07;1.87;;;21.00;62.80;21.70;100153.00;;;;5008642;28;20188;-52
2023/09/20 07:20:28;;;;;;;2.10;1.90;;;21.00;62.90;21.70;100145.00;;;;5008868;28;20207;-52
2023/09/20 07:22:54;;;;;;;2.10;1.90;;;21.00;63.00;21.70;100140.00;;;;5006781;28;20191;-51
2023/09/20 07:25:27;;;;;;;1.80;1.70;;;21.00;63.10;21.70;100146.00;;;;5006011;28;20796;-51
2023/09/20 07:27:55;;;;;;;2.33;1.83;;;21.00;63.20;21.70;100151.00;;;;5007173;28;20192;-52
2023/09/20 07:30:22;;;;;;;1.97;1.77;;;21.00;63.20;21.70;100142.00;;;;4986609;28;20214;-51
2023/09/20 07:32:50;;;;;;;1.97;1.87;;;21.00;63.20;21.70;100142.00;;;;5005158;28;20339;-51
2023/09/20 07:35:36;;;;;;;1.90;1.80;;;20.90;63.10;21.70;100131.00;;;;5007284;28;20661;-52
2023/09/20 07:38:03;;;;;;;1.90;1.80;;;21.00;63.20;21.70;100139.00;;;;5008893;28;20402;-51
2023/09/20 07:40:30;;;;;;;2.13;1.97;;;21.00;63.30;21.70;100138.00;;;;5008732;28;20238;-51
2023/09/20 07:43:07;;;;;;;2.00;1.80;;;21.00;63.30;21.70;100130.00;;;;5010860;28;20184;-51
2023/09/20 07:45:39;;;;;;;1.90;1.80;;;20.90;63.30;21.70;100140.00;;;;5032290;28;20172;-54
2023/09/20 07:48:21;;;;;;;2.20;2.00;;;21.00;63.50;21.70;100130.00;;;;5018726;28;20176;-51
2023/09/20 07:50:50;;;;;;;1.80;1.70;;;20.90;63.40;21.70;100139.00;;;;5012100;28;20582;-51
2023/09/20 07:53:17;;;;;;;2.20;2.00;;;21.00;63.50;21.70;100122.00;;;;5011937;28;20589;-52
2023/09/20 07:55:48;;;;;;;1.87;1.70;;;21.00;63.70;21.70;100141.00;;;;5012183;28;20180;-52
2023/09/20 07:58:14;;;;;;;2.57;2.00;;;20.90;63.50;21.70;100142.00;;;;5011678;28;20321;-51
2023/09/20 08:00:45;;;;;;;2.00;1.90;;;20.90;63.50;21.70;100128.00;;;;5027571;28;20315;-52
2023/09/20 08:03:11;;;;;;;2.10;1.90;;;20.90;63.60;21.70;100131.00;;;;5014233;28;20262;-52
2023/09/20 08:05:38;;;;;;;1.90;1.80;;;20.90;63.70;21.70;100139.00;;;;5011361;28;20182;-52
2023/09/20 08:08:06;;;;;;;3.10;1.80;;;21.00;63.80;21.70;100129.00;;;;5011563;28;20183;-52
2023/09/20 08:10:33;;;;;;;1.90;1.80;;;20.90;63.80;21.70;100140.00;;;;5008516;28;20219;-51
2023/09/20 08:13:00;;;;;;;1.83;1.73;;;20.90;63.80;21.70;100140.00;;;;5011927;28;20211;-51
2023/09/20 08:15:26;;;;;;;2.10;1.90;;;21.00;63.90;21.70;100143.00;;;;5011811;28;20171;-51
2023/09/20 08:20:39;;;;;;;2.20;2.00;;;20.90;63.80;21.70;100142.00;;;;5010894;28;20206;-51
2023/09/20 09:01:36;;;;;;;1.97;1.77;;;21.00;64.50;21.70;100162.00;;;;4995087;28;20310;-51
2023/09/20 09:04:02;;;;;;;1.80;1.70;;;21.00;64.50;21.70;100166.00;;;;5008329;28;20460;-51
2023/09/20 09:06:27;;;;;;;1.70;1.60;;;21.00;64.50;21.70;100157.00;;;;5008424;28;20186;-51
2023/09/20 09:08:53;;;;;;;1.63;1.50;;;21.00;64.60;21.70;100158.00;;;;5007946;28;20176;-52
2023/09/20 09:11:19;;;;;;;3.53;1.90;;;21.00;64.70;21.80;100153.00;;;;4992926;28;20203;-51
2023/09/20 09:13:45;;;;;;;1.70;1.60;;;21.00;64.80;21.80;100160.00;;;;5006457;28;20575;-51
2023/09/20 09:16:15;;;;;;;2.20;2.00;;;21.00;64.80;21.80;100156.00;;;;4992657;28;20176;-51
2023/09/20 09:18:41;;;;;;;1.87;1.77;;;21.00;65.00;21.80;100148.00;;;;5009069;28;20524;-52
2023/09/20 09:21:07;;;;;;;2.77;1.87;;;21.00;65.00;21.80;100142.00;;;;5010113;28;20215;-51
2023/09/20 09:23:35;;;;;;;2.13;1.70;;;21.10;65.20;21.80;100140.00;;;;5008824;28;20560;-52
2023/09/20 09:26:02;;;;;;;2.83;1.90;;;21.10;65.30;21.80;100158.00;;;;5005675;28;20180;-52
2023/09/20 09:28:31;;;;;;;2.47;1.77;;;21.10;65.30;21.80;100153.00;;;;5008793;28;20664;-52
2023/09/20 09:30:57;;;;;;;2.57;1.97;;;21.10;65.40;21.80;100078.00;;;;5008555;28;20196;-52
2023/09/20 09:33:23;;;;;;;4.50;2.00;;;21.10;65.50;21.80;100146.00;;;;5009043;28;20232;-51
2023/09/20 09:35:48;;;;;;;3.67;2.00;;;21.10;65.70;21.80;100152.00;;;;5008675;28;20171;-51
2023/09/20 09:38:21;;;;;;;2.80;2.10;;;21.00;65.60;21.80;100154.00;;;;5009986;28;20179;-52
2023/09/20 09:40:53;;;;;;;3.13;1.90;;;21.10;65.60;21.80;100144.00;;;;5010116;28;20690;-51
2023/09/20 09:43:19;;;;;;;4.43;1.90;;;21.10;65.60;21.90;100145.00;;;;5011112;28;20742;-51
2023/09/20 09:45:49;;;;;;;4.17;2.00;;;21.10;65.60;21.90;100146.00;;;;5025094;28;20186;-51
2023/09/20 09:48:16;;;;;;;2.40;2.10;;;21.00;65.60;21.90;100143.00;;;;5016130;28;20194;-58
2023/09/20 09:50:45;;;;;;;4.27;1.90;;;21.10;65.70;21.90;100142.00;;;;5024764;28;20211;-49
2023/09/20 09:53:11;;;;;;;3.70;2.00;;;21.10;65.70;21.90;100134.00;;;;5009622;28;20246;-48
2023/09/20 09:55:40;;;;;;;4.80;2.40;;;21.10;65.70;21.90;100132.00;;;;5006082;28;20179;-48
2023/09/20 09:58:08;;;;;;;4.67;2.10;;;21.10;66.00;21.90;100131.00;;;;5010387;28;20186;-49
2023/09/20 10:00:36;;;;;;;3.40;2.00;;;21.10;66.00;21.90;100120.00;;;;5008415;28;20741;-48
2023/09/20 10:03:15;;;;;;;6.47;2.20;;;21.10;66.00;21.90;100118.00;;;;5011553;28;20187;-48
2023/09/20 10:05:42;;;;;;;4.03;2.03;;;21.10;66.00;21.70;100118.00;;;;5024543;28;20460;-49
2023/09/20 10:08:09;;;;;;;8.23;2.10;;;21.10;66.00;21.90;100119.00;;;;5011787;28;20211;-48
2023/09/20 10:10:35;;;;;;;3.60;2.00;;;21.10;66.00;22.00;100119.00;;;;5008932;28;20196;-48
2023/09/20 10:13:03;;;;;;;3.87;1.83;;;21.20;66.20;22.00;100111.00;;;;5009114;28;20761;-48
2023/09/20 10:15:29;;;;;;;3.80;2.10;;;21.10;66.10;22.00;100105.00;;;;5002179;28;20172;-48
2023/09/20 10:17:55;;;;;;;3.57;1.83;;;21.10;66.20;22.00;100118.00;;;;4991764;28;20210;-48
2023/09/20 10:20:22;;;;;;;2.93;1.80;;;21.10;66.20;22.00;100111.00;;;;5004926;28;22055;-48
2023/09/20 10:22:49;;;;;;;3.27;2.00;;;21.20;66.50;22.00;100104.00;;;;5007999;28;20187;-47
2023/09/20 10:25:32;;;;;;;4.10;2.00;;;21.20;66.40;22.00;100110.00;;;;5008316;28;20234;-48
2023/09/20 10:28:02;;;;;;;2.60;1.70;;;21.20;66.50;22.00;100104.00;;;;5008599;28;20214;-48
2023/09/20 10:30:28;;;;;;;5.50;2.10;;;21.20;66.50;22.10;100095.00;;;;5007629;28;20270;-48
2023/09/20 10:32:55;;;;;;;2.00;1.80;;;21.20;67.40;22.10;100100.00;;;;5009548;28;20207;-48
2023/09/20 10:35:29;;;;;;;2.30;1.90;;;21.20;66.60;22.10;100110.00;;;;5009559;28;20176;-47
2023/09/20 10:38:08;;;;;;;2.20;1.73;;;21.20;66.90;22.10;100107.00;;;;5009452;28;20257;-48
2023/09/20 10:40:45;;;;;;;3.37;1.87;;;21.20;66.90;22.10;100102.00;;;;5009794;28;20257;-48
2023/09/20 10:43:35;;;;;;;3.00;1.90;;;21.20;66.80;22.10;100093.00;;;;5009820;28;20545;-49
2023/09/20 10:46:17;;;;;;;2.43;1.83;;;21.20;66.80;22.10;100090.00;;;;5009558;28;20175;-49
2023/09/20 10:48:50;;;;;;;3.60;2.03;;;21.20;66.90;22.10;100090.00;;;;5006008;28;20310;-49
2023/09/20 10:51:53;;;;;;;4.00;1.90;;;21.30;67.00;22.10;100086.00;;;;5011219;28;20434;-49
2023/09/20 10:54:23;;;;;;;3.30;1.90;;;21.30;67.20;22.10;100094.00;;;;5009719;28;20189;-48
2023/09/20 10:56:52;;;;;;;4.43;2.20;;;21.20;67.00;22.10;100092.00;;;;5007912;28;20640;-47
2023/09/20 10:59:24;;;;;;;4.13;2.00;;;21.30;67.30;22.20;100087.00;;;;5008951;28;20179;-48
2023/09/20 11:01:50;;;;;;;4.57;1.97;;;21.30;67.20;22.20;100086.00;;;;5009309;28;20195;-47
2023/09/20 11:04:17;;;;;;;6.07;2.00;;;21.30;67.20;22.20;100088.00;;;;5009661;28;20180;-48
2023/09/20 11:06:50;;;;;;;1.83;1.53;;;21.30;67.40;22.20;100075.00;;;;5009489;28;20187;-48
2023/09/20 11:09:15;;;;;;;2.83;1.93;;;21.30;67.30;22.20;100082.00;;;;5009374;28;20175;-47
2023/09/20 11:11:42;;;;;;;4.43;2.20;;;21.30;67.30;22.20;100075.00;;;;5007496;28;20207;-47
2023/09/20 11:14:12;;;;;;;3.57;2.07;;;21.30;67.40;22.20;100056.00;;;;5009112;28;20605;-48
2023/09/20 11:16:41;;;;;;;2.10;1.87;;;21.30;67.40;22.30;100077.00;;;;5011213;28;20183;-47
2023/09/20 11:19:10;;;;;;;3.10;1.90;;;21.30;67.50;22.30;100084.00;;;;5008508;28;20199;-48
2023/09/20 11:21:36;;;;;;;3.90;1.90;;;21.30;67.60;22.30;100074.00;;;;5011395;28;20223;-48
2023/09/20 11:24:03;;;;;;;3.60;1.90;;;21.30;67.70;22.30;100070.00;;;;5012712;28;20265;-49
2023/09/20 11:26:29;;;;;;;4.37;1.90;;;21.40;68.60;22.30;100069.00;;;;5012459;28;20176;-48
2023/09/20 11:28:54;;;;;;;4.53;2.10;;;21.40;68.00;22.10;100046.00;;;;5011776;28;20186;-48
2023/09/20 11:31:30;;;;;;;4.83;2.10;;;21.40;68.20;22.30;100061.00;;;;5011292;28;20281;-48